sensor_id;sensor_type;location;lat;lon;timestamp;temperature;humidity
69382;DHT22;56560;50.692;12.844;2023-07-13T00:01:47;18.80;73.30
69382;DHT22;56560;50.692;12.844;2023-07-13T00:04:19;18.60;73.50
69382;DHT22;56560;50.692;12.844;2023-07-13T00:06:46;18.40;74.40
69382;DHT22;56560;50.692;12.844;2023-07-13T00:09:13;18.10;73.80
69382;DHT22;56560;50.692;12.844;2023-07-13T00:11:40;17.70;73.70
69382;DHT22;56560;50.692;12.844;2023-07-13T00:14:06;17.50;75.70
69382;DHT22;56560;50.692;12.844;2023-07-13T00:16:34;17.30;78.50
69382;DHT22;56560;50.692;12.844;2023-07-13T00:19:00;17.10;79.30
69382;DHT22;56560;50.692;12.844;2023-07-13T00:21:27;17.00;79.00
69382;DHT22;56560;50.692;12.844;2023-07-13T00:23:53;16.90;80.50
69382;DHT22;56560;50.692;12.844;2023-07-13T00:26:18;16.80;80.90
69382;DHT22;56560;50.692;12.844;2023-07-13T00:28:44;16.70;81.80
69382;DHT22;56560;50.692;12.844;2023-07-13T00:31:11;16.70;81.30
69382;DHT22;56560;50.692;12.844;2023-07-13T00:33:37;16.70;81.40
69382;DHT22;56560;50.692;12.844;2023-07-13T00:36:03;16.70;81.00
69382;DHT22;56560;50.692;12.844;2023-07-13T00:38:29;16.70;81.10
69382;DHT22;56560;50.692;12.844;2023-07-13T00:40:55;16.80;82.10
69382;DHT22;56560;50.692;12.844;2023-07-13T00:43:22;16.80;81.80
69382;DHT22;56560;50.692;12.844;2023-07-13T00:48:17;16.90;82.60
69382;DHT22;56560;50.692;12.844;2023-07-13T00:50:48;17.00;81.40
69382;DHT22;56560;50.692;12.844;2023-07-13T00:53:15;16.90;81.50
69382;DHT22;56560;50.692;12.844;2023-07-13T00:55:42;16.90;81.70
69382;DHT22;56560;50.692;12.844;2023-07-13T00:58:07;16.90;82.10
69382;DHT22;56560;50.692;12.844;2023-07-13T01:00:35;16.90;81.90
69382;DHT22;56560;50.692;12.844;2023-07-13T01:03:03;16.90;80.40
69382;DHT22;56560;50.692;12.844;2023-07-13T01:05:31;16.90;81.20
69382;DHT22;56560;50.692;12.844;2023-07-13T01:07:58;16.90;81.20
69382;DHT22;56560;50.692;12.844;2023-07-13T01:10:25;16.80;82.20
69382;DHT22;56560;50.692;12.844;2023-07-13T01:12:51;16.80;80.70
69382;DHT22;56560;50.692;12.844;2023-07-13T01:18:04;16.70;82.20
69382;DHT22;56560;50.692;12.844;2023-07-13T01:20:30;16.70;81.50
69382;DHT22;56560;50.692;12.844;2023-07-13T01:22:56;16.70;81.70
69382;DHT22;56560;50.692;12.844;2023-07-13T01:25:22;16.60;82.80
69382;DHT22;56560;50.692;12.844;2023-07-13T01:27:48;16.60;84.00
69382;DHT22;56560;50.692;12.844;2023-07-13T01:30:13;16.50;83.30
69382;DHT22;56560;50.692;12.844;2023-07-13T01:32:39;16.50;82.20
69382;DHT22;56560;50.692;12.844;2023-07-13T01:35:07;16.50;82.00
69382;DHT22;56560;50.692;12.844;2023-07-13T01:37:33;16.50;82.90
69382;DHT22;56560;50.692;12.844;2023-07-13T01:40:02;16.50;83.50
69382;DHT22;56560;50.692;12.844;2023-07-13T01:42:29;16.50;83.90
69382;DHT22;56560;50.692;12.844;2023-07-13T01:44:54;16.50;83.40
69382;DHT22;56560;50.692;12.844;2023-07-13T01:47:20;16.50;82.90
69382;DHT22;56560;50.692;12.844;2023-07-13T01:49:45;16.40;82.70
69382;DHT22;56560;50.692;12.844;2023-07-13T01:52:14;16.40;82.60
69382;DHT22;56560;50.692;12.844;2023-07-13T01:54:39;16.30;82.70
69382;DHT22;56560;50.692;12.844;2023-07-13T01:57:05;16.30;82.50
69382;DHT22;56560;50.692;12.844;2023-07-13T01:59:31;16.20;83.20
69382;DHT22;56560;50.692;12.844;2023-07-13T02:01:58;16.30;83.80
69382;DHT22;56560;50.692;12.844;2023-07-13T02:04:24;16.30;83.60
69382;DHT22;56560;50.692;12.844;2023-07-13T02:06:49;16.30;83.20
69382;DHT22;56560;50.692;12.844;2023-07-13T02:09:15;16.40;83.60
69382;DHT22;56560;50.692;12.844;2023-07-13T02:11:41;16.40;83.60
69382;DHT22;56560;50.692;12.844;2023-07-13T02:14:06;16.60;83.50
69382;DHT22;56560;50.692;12.844;2023-07-13T02:16:32;16.60;83.20
69382;DHT22;56560;50.692;12.844;2023-07-13T02:18:57;16.60;83.30
69382;DHT22;56560;50.692;12.844;2023-07-13T02:21:24;16.60;83.10
69382;DHT22;56560;50.692;12.844;2023-07-13T02:23:50;16.60;83.20
69382;DHT22;56560;50.692;12.844;2023-07-13T02:26:15;16.50;82.20
69382;DHT22;56560;50.692;12.844;2023-07-13T02:28:41;16.40;82.50
69382;DHT22;56560;50.692;12.844;2023-07-13T02:31:10;16.40;82.70
69382;DHT22;56560;50.692;12.844;2023-07-13T02:33:36;16.40;83.70
69382;DHT22;56560;50.692;12.844;2023-07-13T02:36:01;16.40;83.70
69382;DHT22;56560;50.692;12.844;2023-07-13T02:38:27;16.30;83.60
69382;DHT22;56560;50.692;12.844;2023-07-13T02:40:53;16.20;83.50
69382;DHT22;56560;50.692;12.844;2023-07-13T02:43:18;16.20;84.10
69382;DHT22;56560;50.692;12.844;2023-07-13T02:45:45;16.20;83.80
69382;DHT22;56560;50.692;12.844;2023-07-13T02:48:12;16.20;83.70
69382;DHT22;56560;50.692;12.844;2023-07-13T02:50:39;16.20;83.40
69382;DHT22;56560;50.692;12.844;2023-07-13T02:53:04;16.30;83.10
69382;DHT22;56560;50.692;12.844;2023-07-13T02:55:30;16.30;84.00
69382;DHT22;56560;50.692;12.844;2023-07-13T02:57:55;16.30;84.80
69382;DHT22;56560;50.692;12.844;2023-07-13T03:00:22;16.40;84.10
69382;DHT22;56560;50.692;12.844;2023-07-13T03:02:48;16.40;84.20
69382;DHT22;56560;50.692;12.844;2023-07-13T03:05:15;16.30;84.30
69382;DHT22;56560;50.692;12.844;2023-07-13T03:07:42;16.20;84.60
69382;DHT22;56560;50.692;12.844;2023-07-13T03:10:08;16.20;83.90
69382;DHT22;56560;50.692;12.844;2023-07-13T03:12:34;16.10;83.90
69382;DHT22;56560;50.692;12.844;2023-07-13T03:15:00;16.00;83.20
69382;DHT22;56560;50.692;12.844;2023-07-13T03:17:25;15.90;84.20
69382;DHT22;56560;50.692;12.844;2023-07-13T03:19:51;15.90;84.00
69382;DHT22;56560;50.692;12.844;2023-07-13T03:22:18;15.80;85.00
69382;DHT22;56560;50.692;12.844;2023-07-13T03:24:45;15.80;85.00
69382;DHT22;56560;50.692;12.844;2023-07-13T03:27:11;15.70;85.60
69382;DHT22;56560;50.692;12.844;2023-07-13T03:29:36;15.60;85.50
69382;DHT22;56560;50.692;12.844;2023-07-13T03:32:02;15.60;85.60
69382;DHT22;56560;50.692;12.844;2023-07-13T03:34:30;15.60;85.60
69382;DHT22;56560;50.692;12.844;2023-07-13T03:36:55;15.60;85.70
69382;DHT22;56560;50.692;12.844;2023-07-13T03:39:21;15.60;85.90
69382;DHT22;56560;50.692;12.844;2023-07-13T03:41:47;15.50;85.70
69382;DHT22;56560;50.692;12.844;2023-07-13T03:44:15;15.60;86.70
69382;DHT22;56560;50.692;12.844;2023-07-13T03:46:41;15.60;85.80
69382;DHT22;56560;50.692;12.844;2023-07-13T03:49:07;15.70;85.20
69382;DHT22;56560;50.692;12.844;2023-07-13T03:51:33;15.70;85.00
69382;DHT22;56560;50.692;12.844;2023-07-13T03:53:59;15.70;84.70
69382;DHT22;56560;50.692;12.844;2023-07-13T03:56:26;15.70;84.70
69382;DHT22;56560;50.692;12.844;2023-07-13T03:58:52;15.70;85.30
69382;DHT22;56560;50.692;12.844;2023-07-13T04:01:20;15.70;85.10
69382;DHT22;56560;50.692;12.844;2023-07-13T04:03:46;15.80;85.10
69382;DHT22;56560;50.692;12.844;2023-07-13T04:06:18;15.80;85.20
69382;DHT22;56560;50.692;12.844;2023-07-13T04:09:07;15.90;84.60
69382;DHT22;56560;50.692;12.844;2023-07-13T04:11:34;15.90;84.20
69382;DHT22;56560;50.692;12.844;2023-07-13T04:14:02;15.90;84.50
69382;DHT22;56560;50.692;12.844;2023-07-13T04:16:28;15.80;85.20
69382;DHT22;56560;50.692;12.844;2023-07-13T04:18:54;15.80;85.20
69382;DHT22;56560;50.692;12.844;2023-07-13T04:21:24;15.80;85.00
69382;DHT22;56560;50.692;12.844;2023-07-13T04:23:50;15.70;85.30
69382;DHT22;56560;50.692;12.844;2023-07-13T04:26:16;15.80;85.30
69382;DHT22;56560;50.692;12.844;2023-07-13T04:28:42;15.80;84.20
69382;DHT22;56560;50.692;12.844;2023-07-13T04:31:07;15.80;84.50
69382;DHT22;56560;50.692;12.844;2023-07-13T04:33:33;15.80;84.10
69382;DHT22;56560;50.692;12.844;2023-07-13T04:35:59;15.90;84.00
69382;DHT22;56560;50.692;12.844;2023-07-13T04:38:29;15.90;84.30
69382;DHT22;56560;50.692;12.844;2023-07-13T04:40:56;16.00;83.90
69382;DHT22;56560;50.692;12.844;2023-07-13T04:43:23;16.10;83.80
69382;DHT22;56560;50.692;12.844;2023-07-13T04:45:50;16.20;83.50
69382;DHT22;56560;50.692;12.844;2023-07-13T04:48:16;16.30;83.20
69382;DHT22;56560;50.692;12.844;2023-07-13T04:50:42;16.40;82.80
69382;DHT22;56560;50.692;12.844;2023-07-13T04:53:09;16.50;82.40
69382;DHT22;56560;50.692;12.844;2023-07-13T04:55:36;16.70;82.30
69382;DHT22;56560;50.692;12.844;2023-07-13T04:58:01;16.80;81.90
69382;DHT22;56560;50.692;12.844;2023-07-13T05:00:28;17.00;81.10
69382;DHT22;56560;50.692;12.844;2023-07-13T05:02:58;17.20;80.40
69382;DHT22;56560;50.692;12.844;2023-07-13T05:05:26;17.20;80.30
69382;DHT22;56560;50.692;12.844;2023-07-13T05:07:52;17.20;80.20
69382;DHT22;56560;50.692;12.844;2023-07-13T05:10:18;17.20;80.70
69382;DHT22;56560;50.692;12.844;2023-07-13T05:12:44;17.00;80.70
69382;DHT22;56560;50.692;12.844;2023-07-13T05:15:11;16.90;81.50
69382;DHT22;56560;50.692;12.844;2023-07-13T05:17:37;17.00;81.40
69382;DHT22;56560;50.692;12.844;2023-07-13T05:20:05;17.20;80.90
69382;DHT22;56560;50.692;12.844;2023-07-13T05:22:31;17.30;80.60
69382;DHT22;56560;50.692;12.844;2023-07-13T05:24:56;17.50;79.80
69382;DHT22;56560;50.692;12.844;2023-07-13T05:27:22;17.60;78.00
69382;DHT22;56560;50.692;12.844;2023-07-13T05:29:48;17.70;78.60
69382;DHT22;56560;50.692;12.844;2023-07-13T05:32:14;17.80;77.40
69382;DHT22;56560;50.692;12.844;2023-07-13T05:34:40;17.80;76.40
69382;DHT22;56560;50.692;12.844;2023-07-13T05:37:06;17.80;77.10
69382;DHT22;56560;50.692;12.844;2023-07-13T05:39:31;18.00;77.40
69382;DHT22;56560;50.692;12.844;2023-07-13T05:41:57;18.10;76.80
69382;DHT22;56560;50.692;12.844;2023-07-13T05:44:22;18.30;76.70
69382;DHT22;56560;50.692;12.844;2023-07-13T05:46:48;18.70;75.30
69382;DHT22;56560;50.692;12.844;2023-07-13T05:49:14;19.10;73.20
69382;DHT22;56560;50.692;12.844;2023-07-13T05:51:39;19.40;71.90
69382;DHT22;56560;50.692;12.844;2023-07-13T05:54:05;19.80;71.20
69382;DHT22;56560;50.692;12.844;2023-07-13T05:56:31;20.10;69.70
69382;DHT22;56560;50.692;12.844;2023-07-13T05:58:56;20.30;68.50
69382;DHT22;56560;50.692;12.844;2023-07-13T06:01:22;20.50;68.10
69382;DHT22;56560;50.692;12.844;2023-07-13T06:03:49;20.60;68.50
69382;DHT22;56560;50.692;12.844;2023-07-13T06:06:16;20.70;67.80
69382;DHT22;56560;50.692;12.844;2023-07-13T06:08:41;20.90;67.90
69382;DHT22;56560;50.692;12.844;2023-07-13T06:11:14;21.20;66.90
69382;DHT22;56560;50.692;12.844;2023-07-13T06:13:40;21.60;66.20
69382;DHT22;56560;50.692;12.844;2023-07-13T06:16:06;21.90;65.00
69382;DHT22;56560;50.692;12.844;2023-07-13T06:18:33;22.00;64.50
69382;DHT22;56560;50.692;12.844;2023-07-13T06:20:59;22.00;63.00
69382;DHT22;56560;50.692;12.844;2023-07-13T06:23:25;21.90;64.50
69382;DHT22;56560;50.692;12.844;2023-07-13T06:25:51;21.90;65.40
69382;DHT22;56560;50.692;12.844;2023-07-13T06:28:17;21.80;63.70
69382;DHT22;56560;50.692;12.844;2023-07-13T06:30:42;21.80;63.60
69382;DHT22;56560;50.692;12.844;2023-07-13T06:33:08;21.90;62.20
69382;DHT22;56560;50.692;12.844;2023-07-13T06:35:34;21.90;61.10
69382;DHT22;56560;50.692;12.844;2023-07-13T06:38:00;21.90;60.50
69382;DHT22;56560;50.692;12.844;2023-07-13T06:40:25;22.00;60.60
69382;DHT22;56560;50.692;12.844;2023-07-13T06:42:53;22.10;58.60
69382;DHT22;56560;50.692;12.844;2023-07-13T06:45:19;22.00;58.80
69382;DHT22;56560;50.692;12.844;2023-07-13T06:47:44;21.90;59.10
69382;DHT22;56560;50.692;12.844;2023-07-13T06:50:10;22.00;58.70
69382;DHT22;56560;50.692;12.844;2023-07-13T06:52:36;21.90;58.30
69382;DHT22;56560;50.692;12.844;2023-07-13T06:55:02;21.90;58.20
69382;DHT22;56560;50.692;12.844;2023-07-13T06:57:28;22.10;57.60
69382;DHT22;56560;50.692;12.844;2023-07-13T06:59:53;22.20;56.90
69382;DHT22;56560;50.692;12.844;2023-07-13T07:02:19;22.50;56.40
69382;DHT22;56560;50.692;12.844;2023-07-13T07:04:45;22.80;54.50
69382;DHT22;56560;50.692;12.844;2023-07-13T07:07:10;23.10;53.60
69382;DHT22;56560;50.692;12.844;2023-07-13T07:09:36;23.20;52.80
69382;DHT22;56560;50.692;12.844;2023-07-13T07:12:02;23.20;53.30
69382;DHT22;56560;50.692;12.844;2023-07-13T07:14:29;23.30;52.60
69382;DHT22;56560;50.692;12.844;2023-07-13T07:16:54;23.40;52.10
69382;DHT22;56560;50.692;12.844;2023-07-13T07:19:20;23.40;53.90
69382;DHT22;56560;50.692;12.844;2023-07-13T07:21:46;23.60;55.10
69382;DHT22;56560;50.692;12.844;2023-07-13T07:24:11;23.90;54.60
69382;DHT22;56560;50.692;12.844;2023-07-13T07:26:37;24.10;54.40
69382;DHT22;56560;50.692;12.844;2023-07-13T07:29:03;24.00;52.60
69382;DHT22;56560;50.692;12.844;2023-07-13T07:31:28;23.90;50.90
69382;DHT22;56560;50.692;12.844;2023-07-13T07:33:54;24.00;50.50
69382;DHT22;56560;50.692;12.844;2023-07-13T07:36:20;24.30;49.50
69382;DHT22;56560;50.692;12.844;2023-07-13T07:38:45;24.60;48.80
69382;DHT22;56560;50.692;12.844;2023-07-13T07:41:13;24.80;49.00
69382;DHT22;56560;50.692;12.844;2023-07-13T07:43:38;25.20;48.60
69382;DHT22;56560;50.692;12.844;2023-07-13T07:46:04;25.20;46.40
69382;DHT22;56560;50.692;12.844;2023-07-13T07:48:30;25.10;47.50
69382;DHT22;56560;50.692;12.844;2023-07-13T07:50:56;25.00;47.30
69382;DHT22;56560;50.692;12.844;2023-07-13T07:53:21;25.00;46.80
69382;DHT22;56560;50.692;12.844;2023-07-13T07:55:47;24.90;49.40
69382;DHT22;56560;50.692;12.844;2023-07-13T07:58:13;24.70;47.80
69382;DHT22;56560;50.692;12.844;2023-07-13T08:00:39;24.40;47.90
69382;DHT22;56560;50.692;12.844;2023-07-13T08:03:05;24.00;49.60
69382;DHT22;56560;50.692;12.844;2023-07-13T08:05:31;23.90;49.90
69382;DHT22;56560;50.692;12.844;2023-07-13T08:07:57;24.00;49.90
69382;DHT22;56560;50.692;12.844;2023-07-13T08:10:22;24.10;50.00
69382;DHT22;56560;50.692;12.844;2023-07-13T08:12:48;24.20;48.30
69382;DHT22;56560;50.692;12.844;2023-07-13T08:15:16;24.30;48.90
69382;DHT22;56560;50.692;12.844;2023-07-13T08:17:42;24.30;49.00
69382;DHT22;56560;50.692;12.844;2023-07-13T08:20:08;24.30;49.60
69382;DHT22;56560;50.692;12.844;2023-07-13T08:22:36;24.20;49.20
69382;DHT22;56560;50.692;12.844;2023-07-13T08:25:02;24.00;49.20
69382;DHT22;56560;50.692;12.844;2023-07-13T08:27:28;24.00;49.40
69382;DHT22;56560;50.692;12.844;2023-07-13T08:29:54;24.00;50.00
69382;DHT22;56560;50.692;12.844;2023-07-13T08:32:21;23.90;50.20
69382;DHT22;56560;50.692;12.844;2023-07-13T08:34:48;23.90;50.20
69382;DHT22;56560;50.692;12.844;2023-07-13T08:37:14;24.00;50.50
69382;DHT22;56560;50.692;12.844;2023-07-13T08:39:40;24.00;52.70
69382;DHT22;56560;50.692;12.844;2023-07-13T08:47:14;24.30;49.60
69382;DHT22;56560;50.692;12.844;2023-07-13T08:49:41;24.60;48.30
69382;DHT22;56560;50.692;12.844;2023-07-13T08:52:32;25.00;47.10
69382;DHT22;56560;50.692;12.844;2023-07-13T08:55:04;25.10;47.10
69382;DHT22;56560;50.692;12.844;2023-07-13T08:57:33;25.50;47.60
69382;DHT22;56560;50.692;12.844;2023-07-13T08:59:59;26.10;44.20
69382;DHT22;56560;50.692;12.844;2023-07-13T09:02:50;26.40;45.50
69382;DHT22;56560;50.692;12.844;2023-07-13T09:05:31;26.80;44.00
69382;DHT22;56560;50.692;12.844;2023-07-13T09:08:33;26.80;43.90
69382;DHT22;56560;50.692;12.844;2023-07-13T09:16:26;27.50;41.60
69382;DHT22;56560;50.692;12.844;2023-07-13T09:18:56;27.90;42.10
69382;DHT22;56560;50.692;12.844;2023-07-13T09:21:29;28.10;40.40
69382;DHT22;56560;50.692;12.844;2023-07-13T09:26:44;27.50;40.10
69382;DHT22;56560;50.692;12.844;2023-07-13T09:29:28;27.70;40.60
69382;DHT22;56560;50.692;12.844;2023-07-13T09:31:56;28.10;39.20
69382;DHT22;56560;50.692;12.844;2023-07-13T09:34:25;27.70;39.90
69382;DHT22;56560;50.692;12.844;2023-07-13T09:36:51;27.60;41.00
69382;DHT22;56560;50.692;12.844;2023-07-13T09:44:33;28.40;38.90
69382;DHT22;56560;50.692;12.844;2023-07-13T09:46:59;28.60;38.00
69382;DHT22;56560;50.692;12.844;2023-07-13T09:49:38;28.60;37.00
69382;DHT22;56560;50.692;12.844;2023-07-13T09:52:11;28.70;37.10
69382;DHT22;56560;50.692;12.844;2023-07-13T09:54:37;28.90;37.10
69382;DHT22;56560;50.692;12.844;2023-07-13T09:57:15;28.40;37.40
69382;DHT22;56560;50.692;12.844;2023-07-13T09:59:47;27.80;38.50
69382;DHT22;56560;50.692;12.844;2023-07-13T10:02:33;27.30;39.80
69382;DHT22;56560;50.692;12.844;2023-07-13T10:05:11;26.60;40.10
69382;DHT22;56560;50.692;12.844;2023-07-13T10:07:43;26.00;41.40
69382;DHT22;56560;50.692;12.844;2023-07-13T10:10:18;25.80;42.60
69382;DHT22;56560;50.692;12.844;2023-07-13T10:12:46;25.70;42.70
69382;DHT22;56560;50.692;12.844;2023-07-13T10:15:17;25.90;43.60
69382;DHT22;56560;50.692;12.844;2023-07-13T10:17:44;26.30;44.40
69382;DHT22;56560;50.692;12.844;2023-07-13T10:20:10;26.50;43.10
69382;DHT22;56560;50.692;12.844;2023-07-13T10:25:28;27.30;41.50
69382;DHT22;56560;50.692;12.844;2023-07-13T10:28:04;27.40;41.40
69382;DHT22;56560;50.692;12.844;2023-07-13T10:30:34;27.60;40.30
69382;DHT22;56560;50.692;12.844;2023-07-13T10:33:10;27.60;40.10
69382;DHT22;56560;50.692;12.844;2023-07-13T10:35:37;27.40;39.80
69382;DHT22;56560;50.692;12.844;2023-07-13T10:38:10;27.30;40.90
69382;DHT22;56560;50.692;12.844;2023-07-13T10:40:39;27.40;40.70
69382;DHT22;56560;50.692;12.844;2023-07-13T10:43:33;27.50;39.80
69382;DHT22;56560;50.692;12.844;2023-07-13T10:46:00;27.60;39.90
69382;DHT22;56560;50.692;12.844;2023-07-13T10:48:27;27.60;40.60
69382;DHT22;56560;50.692;12.844;2023-07-13T10:50:55;28.00;39.80
69382;DHT22;56560;50.692;12.844;2023-07-13T10:53:31;28.20;38.50
69382;DHT22;56560;50.692;12.844;2023-07-13T10:56:22;28.70;38.20
69382;DHT22;56560;50.692;12.844;2023-07-13T10:59:47;29.30;36.10
69382;DHT22;56560;50.692;12.844;2023-07-13T11:01:54;29.40;37.20
69382;DHT22;56560;50.692;12.844;2023-07-13T11:04:21;29.30;37.70
69382;DHT22;56560;50.692;12.844;2023-07-13T11:06:53;29.30;36.90
69382;DHT22;56560;50.692;12.844;2023-07-13T11:09:39;29.10;36.30
69382;DHT22;56560;50.692;12.844;2023-07-13T11:17:53;29.40;35.20
69382;DHT22;56560;50.692;12.844;2023-07-13T11:20:31;28.90;35.30
69382;DHT22;56560;50.692;12.844;2023-07-13T11:25:39;28.80;36.10
69382;DHT22;56560;50.692;12.844;2023-07-13T11:36:04;28.50;36.10
69382;DHT22;56560;50.692;12.844;2023-07-13T11:38:35;29.00;37.30
69382;DHT22;56560;50.692;12.844;2023-07-13T11:41:23;29.90;35.40
69382;DHT22;56560;50.692;12.844;2023-07-13T11:43:50;30.30;34.80
69382;DHT22;56560;50.692;12.844;2023-07-13T11:46:26;30.20;34.10
69382;DHT22;56560;50.692;12.844;2023-07-13T11:48:53;30.40;33.20
69382;DHT22;56560;50.692;12.844;2023-07-13T11:51:28;30.30;34.40
69382;DHT22;56560;50.692;12.844;2023-07-13T11:53:55;30.90;32.80
69382;DHT22;56560;50.692;12.844;2023-07-13T11:56:22;31.60;32.50
69382;DHT22;56560;50.692;12.844;2023-07-13T11:58:51;32.10;31.10
69382;DHT22;56560;50.692;12.844;2023-07-13T12:01:28;31.50;32.00
69382;DHT22;56560;50.692;12.844;2023-07-13T12:04:00;31.50;32.30
69382;DHT22;56560;50.692;12.844;2023-07-13T12:06:29;31.60;32.80
69382;DHT22;56560;50.692;12.844;2023-07-13T12:09:00;31.70;33.20
69382;DHT22;56560;50.692;12.844;2023-07-13T12:11:28;31.50;33.50
69382;DHT22;56560;50.692;12.844;2023-07-13T12:13:54;31.20;33.50
69382;DHT22;56560;50.692;12.844;2023-07-13T12:16:28;30.40;33.00
69382;DHT22;56560;50.692;12.844;2023-07-13T12:18:55;29.40;33.80
69382;DHT22;56560;50.692;12.844;2023-07-13T12:21:27;28.70;34.30
69382;DHT22;56560;50.692;12.844;2023-07-13T12:23:55;28.20;35.40
69382;DHT22;56560;50.692;12.844;2023-07-13T12:26:20;28.30;35.80
69382;DHT22;56560;50.692;12.844;2023-07-13T12:28:47;28.40;35.80
69382;DHT22;56560;50.692;12.844;2023-07-13T12:31:35;28.20;35.60
69382;DHT22;56560;50.692;12.844;2023-07-13T12:34:06;27.90;36.10
69382;DHT22;56560;50.692;12.844;2023-07-13T12:36:35;27.80;36.90
69382;DHT22;56560;50.692;12.844;2023-07-13T12:39:11;29.20;35.80
69382;DHT22;56560;50.692;12.844;2023-07-13T12:41:39;31.50;32.80
69382;DHT22;56560;50.692;12.844;2023-07-13T12:44:14;33.70;31.30
69382;DHT22;56560;50.692;12.844;2023-07-13T12:46:52;34.80;29.20
69382;DHT22;56560;50.692;12.844;2023-07-13T12:49:23;34.50;29.50
69382;DHT22;56560;50.692;12.844;2023-07-13T12:51:57;34.10;29.80
69382;DHT22;56560;50.692;12.844;2023-07-13T12:54:24;33.90;30.30
69382;DHT22;56560;50.692;12.844;2023-07-13T12:56:52;33.30;30.80
69382;DHT22;56560;50.692;12.844;2023-07-13T12:59:21;32.70;30.50
69382;DHT22;56560;50.692;12.844;2023-07-13T13:01:48;31.70;31.90
69382;DHT22;56560;50.692;12.844;2023-07-13T13:04:15;32.40;31.40
69382;DHT22;56560;50.692;12.844;2023-07-13T13:06:42;34.40;29.30
69382;DHT22;56560;50.692;12.844;2023-07-13T13:09:14;36.00;27.70
69382;DHT22;56560;50.692;12.844;2023-07-13T13:11:41;37.20;27.10
69382;DHT22;56560;50.692;12.844;2023-07-13T13:14:07;37.40;26.00
69382;DHT22;56560;50.692;12.844;2023-07-13T13:16:37;37.10;26.90
69382;DHT22;56560;50.692;12.844;2023-07-13T13:19:20;36.50;27.40
69382;DHT22;56560;50.692;12.844;2023-07-13T13:21:47;36.20;26.80
69382;DHT22;56560;50.692;12.844;2023-07-13T13:24:21;35.60;27.70
69382;DHT22;56560;50.692;12.844;2023-07-13T13:26:48;34.90;27.80
69382;DHT22;56560;50.692;12.844;2023-07-13T13:29:23;34.70;28.60
69382;DHT22;56560;50.692;12.844;2023-07-13T13:31:53;34.30;28.50
69382;DHT22;56560;50.692;12.844;2023-07-13T13:34:20;33.30;29.50
69382;DHT22;56560;50.692;12.844;2023-07-13T13:36:49;32.10;30.30
69382;DHT22;56560;50.692;12.844;2023-07-13T13:39:24;31.50;30.80
69382;DHT22;56560;50.692;12.844;2023-07-13T13:41:51;31.30;31.00
69382;DHT22;56560;50.692;12.844;2023-07-13T13:44:18;32.10;30.90
69382;DHT22;56560;50.692;12.844;2023-07-13T13:46:49;32.90;29.90
69382;DHT22;56560;50.692;12.844;2023-07-13T13:49:22;33.00;28.90
69382;DHT22;56560;50.692;12.844;2023-07-13T13:51:48;32.70;29.80
69382;DHT22;56560;50.692;12.844;2023-07-13T13:54:15;32.80;29.50
69382;DHT22;56560;50.692;12.844;2023-07-13T13:56:46;33.20;29.40
69382;DHT22;56560;50.692;12.844;2023-07-13T13:59:13;33.70;28.60
69382;DHT22;56560;50.692;12.844;2023-07-13T14:01:40;33.20;28.60
69382;DHT22;56560;50.692;12.844;2023-07-13T14:04:06;32.10;30.00
69382;DHT22;56560;50.692;12.844;2023-07-13T14:06:34;31.00;31.00
69382;DHT22;56560;50.692;12.844;2023-07-13T14:09:01;30.00;30.90
69382;DHT22;56560;50.692;12.844;2023-07-13T14:11:27;29.30;31.60
69382;DHT22;56560;50.692;12.844;2023-07-13T14:13:56;28.90;32.20
69382;DHT22;56560;50.692;12.844;2023-07-13T14:16:26;28.60;32.90
69382;DHT22;56560;50.692;12.844;2023-07-13T14:18:53;28.60;33.20
69382;DHT22;56560;50.692;12.844;2023-07-13T14:21:21;29.40;31.90
69382;DHT22;56560;50.692;12.844;2023-07-13T14:23:48;29.70;32.60
69382;DHT22;56560;50.692;12.844;2023-07-13T14:26:22;29.50;32.40
69382;DHT22;56560;50.692;12.844;2023-07-13T14:28:50;29.70;33.00
69382;DHT22;56560;50.692;12.844;2023-07-13T14:31:17;31.10;31.30
69382;DHT22;56560;50.692;12.844;2023-07-13T14:33:43;32.40;30.00
69382;DHT22;56560;50.692;12.844;2023-07-13T14:36:28;33.10;28.60
69382;DHT22;56560;50.692;12.844;2023-07-13T14:38:55;33.30;29.10
69382;DHT22;56560;50.692;12.844;2023-07-13T14:41:21;33.90;28.00
69382;DHT22;56560;50.692;12.844;2023-07-13T14:43:47;34.40;28.40
69382;DHT22;56560;50.692;12.844;2023-07-13T14:46:28;34.90;26.90
69382;DHT22;56560;50.692;12.844;2023-07-13T14:49:01;34.80;26.60
69382;DHT22;56560;50.692;12.844;2023-07-13T14:51:29;35.00;27.30
69382;DHT22;56560;50.692;12.844;2023-07-13T14:53:55;35.40;25.50
69382;DHT22;56560;50.692;12.844;2023-07-13T14:56:21;35.80;26.20
69382;DHT22;56560;50.692;12.844;2023-07-13T14:58:47;36.20;25.20
69382;DHT22;56560;50.692;12.844;2023-07-13T15:01:14;35.90;25.30
69382;DHT22;56560;50.692;12.844;2023-07-13T15:03:45;36.20;25.10
69382;DHT22;56560;50.692;12.844;2023-07-13T15:06:12;36.70;24.60
69382;DHT22;56560;50.692;12.844;2023-07-13T15:08:38;36.60;24.70
69382;DHT22;56560;50.692;12.844;2023-07-13T15:11:09;36.60;24.90
69382;DHT22;56560;50.692;12.844;2023-07-13T15:13:40;37.20;23.90
69382;DHT22;56560;50.692;12.844;2023-07-13T15:16:21;37.40;23.20
69382;DHT22;56560;50.692;12.844;2023-07-13T15:18:49;36.40;23.40
69382;DHT22;56560;50.692;12.844;2023-07-13T15:21:25;34.80;24.40
69382;DHT22;56560;50.692;12.844;2023-07-13T15:23:51;33.50;25.70
69382;DHT22;56560;50.692;12.844;2023-07-13T15:26:18;32.90;26.80
69382;DHT22;56560;50.692;12.844;2023-07-13T15:28:45;32.40;26.90
69382;DHT22;56560;50.692;12.844;2023-07-13T15:31:32;32.10;29.60
69382;DHT22;56560;50.692;12.844;2023-07-13T15:33:59;31.60;27.70
69382;DHT22;56560;50.692;12.844;2023-07-13T15:36:25;30.90;28.50
69382;DHT22;56560;50.692;12.844;2023-07-13T15:38:53;30.90;29.60
69382;DHT22;56560;50.692;12.844;2023-07-13T15:41:27;32.00;28.10
69382;DHT22;56560;50.692;12.844;2023-07-13T15:43:55;32.80;27.40
69382;DHT22;56560;50.692;12.844;2023-07-13T15:46:24;34.30;26.50
69382;DHT22;56560;50.692;12.844;2023-07-13T15:48:51;36.20;25.70
69382;DHT22;56560;50.692;12.844;2023-07-13T15:51:26;37.50;22.80
69382;DHT22;56560;50.692;12.844;2023-07-13T15:53:59;38.60;22.80
69382;DHT22;56560;50.692;12.844;2023-07-13T15:56:31;39.20;22.70
69382;DHT22;56560;50.692;12.844;2023-07-13T15:58:59;40.00;22.10
69382;DHT22;56560;50.692;12.844;2023-07-13T16:01:26;40.10;21.80
69382;DHT22;56560;50.692;12.844;2023-07-13T16:03:52;39.30;22.70
69382;DHT22;56560;50.692;12.844;2023-07-13T16:06:22;38.80;23.00